Time;durP1;ratioP1;P1;durP2;ratioP2;P2;SDS_P1;SDS_P2;PMS_P1;PMS_P2;Temp;Humidity;BMP_temperature;BMP_pressure;BME280_temperature;BME280_humidity;BME280_pressure;Samples;Min_cycle;Max_cycle;Signal;HPM_P1;HPM_P2
2023/07/25 00:00:24;;;;;;;3.80;2.37;;;13.70;99.90;;;;;;2072300;28;20282;-84
2023/07/25 00:01:24;;;;;;;3.53;2.47;;;13.80;99.90;;;;;;2082083;28;20307;-84
2023/07/25 00:02:25;;;;;;;2.97;1.83;;;13.80;99.90;;;;;;2064847;28;20234;-85
2023/07/25 00:03:26;;;;;;;2.87;2.20;;;13.70;99.90;;;;;;2053249;28;20657;-84
2023/07/25 00:04:26;;;;;;;2.83;2.30;;;13.70;99.90;;;;;;2070772;28;20272;-84
2023/07/25 00:05:27;;;;;;;2.23;1.97;;;13.60;99.90;;;;;;2071658;28;20312;-85
2023/07/25 00:06:30;;;;;;;3.03;2.37;;;13.50;99.90;;;;;;2049279;28;20308;-84
2023/07/25 00:07:30;;;;;;;4.03;2.15;;;13.50;99.90;;;;;;2062684;28;20234;-84
2023/07/25 00:08:31;;;;;;;2.40;2.20;;;13.60;99.90;;;;;;2069525;28;20235;-84
2023/07/25 00:09:32;;;;;;;2.90;2.22;;;13.70;99.90;;;;;;2063040;28;20257;-84
2023/07/25 00:10:34;;;;;;;3.08;2.25;;;13.70;99.90;;;;;;2064223;28;20315;-83
2023/07/25 00:11:35;;;;;;;2.40;2.20;;;13.80;99.90;;;;;;2071697;28;20775;-83
2023/07/25 00:12:37;;;;;;;3.20;2.40;;;13.90;99.90;;;;;;2072962;28;20256;-84
2023/07/25 00:13:38;;;;;;;3.03;2.53;;;13.80;99.90;;;;;;2070189;28;20234;-83
2023/07/25 00:14:38;;;;;;;2.87;2.47;;;14.00;99.90;;;;;;2073148;28;20239;-83
2023/07/25 00:15:39;;;;;;;2.70;2.30;;;14.10;99.90;;;;;;2072645;28;20233;-83
2023/07/25 00:16:40;;;;;;;3.27;2.47;;;14.10;99.90;;;;;;2071852;28;20285;-82
2023/07/25 00:17:42;;;;;;;2.83;2.53;;;14.10;99.90;;;;;;2070925;28;20227;-83
2023/07/25 00:18:43;;;;;;;3.13;2.58;;;14.10;99.90;;;;;;2059571;28;20235;-84
2023/07/25 00:19:43;;;;;;;3.30;2.60;;;14.10;99.90;;;;;;2073549;28;20257;-84
2023/07/25 00:20:44;;;;;;;3.03;2.33;;;14.20;99.90;;;;;;2084585;28;20236;-83
2023/07/25 00:21:45;;;;;;;2.87;2.10;;;14.30;99.90;;;;;;2065987;28;20230;-84
2023/07/25 00:22:45;;;;;;;2.40;2.00;;;14.30;99.90;;;;;;2063606;28;20738;-85
2023/07/25 00:23:46;;;;;;;3.73;2.13;;;14.40;99.90;;;;;;2065448;28;20233;-84
2023/07/25 00:24:46;;;;;;;3.43;2.40;;;14.20;99.90;;;;;;2073617;28;20225;-84
2023/07/25 00:25:47;;;;;;;2.37;2.17;;;14.30;99.90;;;;;;2073385;28;20629;-85
2023/07/25 00:26:48;;;;;;;3.23;2.30;;;14.20;99.90;;;;;;2071717;28;20233;-83
2023/07/25 00:27:49;;;;;;;3.33;2.43;;;14.40;99.90;;;;;;2065720;28;20237;-83
2023/07/25 00:28:49;;;;;;;2.40;2.20;;;14.30;99.90;;;;;;2065150;28;20226;-84
2023/07/25 00:29:53;;;;;;;2.97;2.17;;;14.40;99.90;;;;;;2073361;28;20268;-83
2023/07/25 00:30:53;;;;;;;4.45;2.58;;;14.50;99.90;;;;;;2078499;28;20233;-84
2023/07/25 00:31:54;;;;;;;3.43;2.40;;;14.50;99.90;;;;;;2063133;28;20229;-82
2023/07/25 00:32:55;;;;;;;3.73;2.80;;;14.50;99.90;;;;;;2069193;28;20230;-82
2023/07/25 00:33:55;;;;;;;3.43;2.67;;;14.40;99.90;;;;;;2069075;28;20317;-82
2023/07/25 00:34:56;;;;;;;3.50;2.57;;;14.40;99.90;;;;;;2068821;28;20229;-82
2023/07/25 00:35:57;;;;;;;3.20;2.63;;;14.40;99.90;;;;;;2060366;28;20249;-83
2023/07/25 00:36:57;;;;;;;3.07;2.50;;;14.40;99.90;;;;;;2062475;28;20239;-83
2023/07/25 00:37:58;;;;;;;4.13;2.80;;;14.40;99.90;;;;;;2053620;28;20696;-82
2023/07/25 00:38:59;;;;;;;3.07;2.63;;;14.50;99.90;;;;;;2056412;28;20402;-82
2023/07/25 00:40:00;;;;;;;2.87;2.23;;;14.50;99.90;;;;;;2057267;28;20246;-82
2023/07/25 00:41:00;;;;;;;2.43;2.23;;;14.50;99.90;;;;;;2074031;28;20205;-82
2023/07/25 00:42:01;;;;;;;3.43;2.63;;;14.50;99.90;;;;;;2079620;28;20190;-82
2023/07/25 00:43:02;;;;;;;3.73;2.77;;;14.50;99.90;;;;;;2084296;28;20264;-83
2023/07/25 00:44:03;;;;;;;2.63;2.30;;;14.60;99.90;;;;;;2086874;28;20187;-84
2023/07/25 00:45:04;;;;;;;3.20;2.90;;;14.60;99.90;;;;;;2078552;28;20197;-84
2023/07/25 00:46:05;;;;;;;3.58;2.42;;;14.40;99.90;;;;;;2054532;28;20199;-83
2023/07/25 00:47:06;;;;;;;3.42;2.20;;;14.50;99.90;;;;;;2061482;28;20195;-83
2023/07/25 00:48:06;;;;;;;3.20;2.90;;;14.50;99.90;;;;;;2069578;28;20241;-84
2023/07/25 00:49:07;;;;;;;3.27;2.80;;;14.40;99.90;;;;;;2068220;28;20545;-83
2023/07/25 00:50:09;;;;;;;3.45;2.42;;;14.40;99.90;;;;;;2063323;28;20787;-83
2023/07/25 00:51:10;;;;;;;3.10;2.47;;;14.40;99.90;;;;;;2072127;28;20206;-83
2023/07/25 00:52:11;;;;;;;3.05;2.67;;;14.40;99.90;;;;;;2071981;28;20662;-84
2023/07/25 00:53:13;;;;;;;4.03;2.72;;;14.50;99.90;;;;;;2062390;28;20186;-84
2023/07/25 00:54:13;;;;;;;4.88;3.20;;;14.40;99.90;;;;;;2059381;28;20190;-84
2023/07/25 00:55:14;;;;;;;3.83;3.00;;;14.40;99.90;;;;;;2064403;28;20221;-84
2023/07/25 00:56:15;;;;;;;3.00;2.50;;;14.40;99.90;;;;;;2061257;28;20184;-84
2023/07/25 00:57:18;;;;;;;2.20;2.00;;;14.40;99.90;;;;;;2061354;28;20202;-83
2023/07/25 00:58:19;;;;;;;2.75;2.20;;;14.40;99.90;;;;;;2061843;28;20193;-83
2023/07/25 00:59:19;;;;;;;2.77;1.90;;;14.40;99.90;;;;;;2068721;28;20706;-84
2023/07/25 01:00:20;;;;;;;2.90;2.13;;;14.50;99.90;;;;;;2077643;28;20505;-84
2023/07/25 01:01:22;;;;;;;3.90;2.08;;;14.40;99.90;;;;;;2066551;28;20309;-82
2023/07/25 01:02:23;;;;;;;2.70;2.28;;;14.30;99.90;;;;;;2066975;28;20862;-83
2023/07/25 01:03:23;;;;;;;3.07;2.23;;;14.20;99.90;;;;;;2060732;28;20254;-84
2023/07/25 01:04:24;;;;;;;2.40;2.20;;;14.10;99.90;;;;;;2055914;28;20246;-83
2023/07/25 01:05:28;;;;;;;4.35;2.58;;;14.10;99.90;;;;;;2055326;28;20238;-84
2023/07/25 01:06:30;;;;;;;3.50;2.28;;;14.30;99.90;;;;;;2063368;28;20266;-83
2023/07/25 01:07:31;;;;;;;5.13;2.65;;;14.20;99.90;;;;;;2065356;28;20230;-85
2023/07/25 01:08:32;;;;;;;2.33;1.92;;;14.20;99.90;;;;;;2073181;28;20233;-85
2023/07/25 01:09:44;;;;;;;2.87;2.10;;;14.30;99.90;;;;;;2070995;28;20226;-85
2023/07/25 01:10:44;;;;;;;3.17;2.40;;;14.30;99.90;;;;;;2074716;28;20832;-85
2023/07/25 01:11:45;;;;;;;2.73;2.23;;;14.30;99.90;;;;;;2073123;28;20244;-84
2023/07/25 01:12:46;;;;;;;2.67;2.30;;;14.20;99.90;;;;;;2078733;28;20693;-84
2023/07/25 01:13:48;;;;;;;3.13;2.47;;;14.10;99.90;;;;;;2079457;28;20232;-85
2023/07/25 01:14:49;;;;;;;3.40;2.40;;;14.20;99.90;;;;;;2069373;28;20341;-85
2023/07/25 01:15:51;;;;;;;2.90;2.60;;;14.20;99.90;;;;;;2070868;28;20252;-84
2023/07/25 01:16:53;;;;;;;3.33;2.63;;;14.30;99.90;;;;;;2064934;28;20229;-84
2023/07/25 01:17:54;;;;;;;5.65;2.58;;;14.30;99.90;;;;;;2053120;28;20242;-84
2023/07/25 01:18:55;;;;;;;3.00;2.53;;;14.30;99.90;;;;;;2060683;28;20227;-85
2023/07/25 01:19:56;;;;;;;4.55;2.80;;;14.30;99.90;;;;;;2063247;28;20497;-84
2023/07/25 01:20:58;;;;;;;3.20;2.60;;;14.10;99.90;;;;;;2063884;28;20317;-84
2023/07/25 01:21:58;;;;;;;3.53;2.30;;;14.10;99.90;;;;;;2064914;28;20328;-84
2023/07/25 01:23:01;;;;;;;4.80;2.70;;;14.20;99.90;;;;;;2072356;28;20323;-83
2023/07/25 01:24:02;;;;;;;3.70;3.03;;;14.30;99.90;;;;;;2065019;28;20224;-83
2023/07/25 01:25:03;;;;;;;4.00;2.83;;;14.30;99.90;;;;;;2055670;28;20277;-84
2023/07/25 01:26:04;;;;;;;4.95;2.55;;;14.30;99.90;;;;;;2055554;28;20206;-84
2023/07/25 01:27:05;;;;;;;4.15;2.80;;;14.30;99.90;;;;;;2068122;28;20852;-84
2023/07/25 01:28:06;;;;;;;2.95;2.65;;;14.40;99.90;;;;;;2088545;28;20192;-84
2023/07/25 01:29:07;;;;;;;3.20;2.70;;;14.40;99.90;;;;;;2073353;28;20269;-83
2023/07/25 01:30:08;;;;;;;3.47;3.10;;;14.30;99.90;;;;;;2061759;28;20239;-83
2023/07/25 01:31:09;;;;;;;3.25;2.50;;;14.20;99.90;;;;;;2065448;28;20249;-84
2023/07/25 01:32:10;;;;;;;4.67;2.57;;;14.20;99.90;;;;;;2068312;28;20591;-84
2023/07/25 01:33:11;;;;;;;2.92;2.38;;;14.20;99.90;;;;;;2064685;28;20182;-84
2023/07/25 01:34:11;;;;;;;4.30;3.00;;;14.20;99.90;;;;;;2068834;28;20186;-82
2023/07/25 01:35:12;;;;;;;6.90;3.10;;;14.20;99.90;;;;;;2071209;28;20185;-84
2023/07/25 01:36:13;;;;;;;4.87;3.10;;;14.20;99.90;;;;;;2072293;28;20828;-83
2023/07/25 01:37:15;;;;;;;3.73;2.77;;;14.10;99.90;;;;;;2060235;28;20285;-83
2023/07/25 01:38:16;;;;;;;5.35;2.88;;;14.20;99.90;;;;;;2064603;28;20186;-83
2023/07/25 01:39:17;;;;;;;6.70;3.23;;;14.10;99.90;;;;;;2063577;28;20194;-84
2023/07/25 01:40:17;;;;;;;4.37;3.57;;;14.00;99.90;;;;;;2062658;28;20184;-83
2023/07/25 01:41:18;;;;;;;3.67;2.80;;;13.90;99.90;;;;;;2062965;28;20199;-82
2023/07/25 01:42:19;;;;;;;4.60;3.20;;;13.80;99.90;;;;;;2052037;28;20232;-82
2023/07/25 01:43:19;;;;;;;3.63;2.57;;;13.80;99.90;;;;;;2063946;28;20245;-83
2023/07/25 01:44:20;;;;;;;4.00;2.80;;;13.90;99.90;;;;;;2064065;28;20226;-83
2023/07/25 01:45:21;;;;;;;5.13;3.10;;;14.00;99.90;;;;;;2066101;28;20236;-84
2023/07/25 01:46:22;;;;;;;3.50;2.83;;;14.00;99.90;;;;;;2053853;28;20235;-82
2023/07/25 01:47:25;;;;;;;3.00;2.70;;;14.10;99.90;;;;;;2051495;28;20678;-82
2023/07/25 01:48:26;;;;;;;3.30;2.63;;;14.10;99.90;;;;;;2061847;28;20226;-83
2023/07/25 01:49:27;;;;;;;4.63;3.07;;;14.20;99.90;;;;;;2063734;28;20593;-83
2023/07/25 01:50:28;;;;;;;3.20;2.70;;;14.30;99.90;;;;;;2065884;28;20225;-83
2023/07/25 01:51:29;;;;;;;4.10;2.70;;;14.10;99.90;;;;;;2056066;28;20278;-83
2023/07/25 01:52:31;;;;;;;4.67;2.87;;;14.00;99.90;;;;;;2076117;28;20221;-83
2023/07/25 01:53:32;;;;;;;3.55;2.53;;;14.10;99.90;;;;;;2075057;28;20598;-83
2023/07/25 01:54:33;;;;;;;3.67;2.83;;;13.90;99.90;;;;;;2076089;28;20237;-84
2023/07/25 01:55:36;;;;;;;3.97;3.23;;;13.90;99.90;;;;;;2063145;28;20230;-83
2023/07/25 01:56:37;;;;;;;3.38;2.97;;;13.90;99.90;;;;;;2075584;28;20225;-82
2023/07/25 01:57:37;;;;;;;4.83;2.93;;;13.80;99.90;;;;;;2083280;28;20709;-84
2023/07/25 01:58:38;;;;;;;3.43;2.87;;;13.80;99.90;;;;;;2069217;28;20257;-82
2023/07/25 01:59:39;;;;;;;4.37;3.37;;;13.90;99.90;;;;;;2058062;28;20321;-81
2023/07/25 02:00:39;;;;;;;4.13;2.80;;;13.90;99.90;;;;;;2063399;28;20262;-83
2023/07/25 02:01:40;;;;;;;7.50;3.10;;;13.90;99.90;;;;;;2062238;28;20276;-83
2023/07/25 02:02:41;;;;;;;3.17;2.53;;;14.00;99.90;;;;;;2068631;28;20611;-83
2023/07/25 02:03:41;;;;;;;3.67;2.90;;;13.90;99.90;;;;;;2061669;28;20246;-84
2023/07/25 02:04:42;;;;;;;3.77;2.97;;;14.00;99.90;;;;;;2060662;28;20261;-83
2023/07/25 02:05:43;;;;;;;3.57;3.10;;;14.00;99.90;;;;;;2057817;28;20795;-85
2023/07/25 02:06:46;;;;;;;5.70;3.13;;;13.90;99.90;;;;;;2066066;28;20238;-82
2023/07/25 02:07:47;;;;;;;3.70;2.55;;;14.00;99.90;;;;;;2062158;28;20517;-83
2023/07/25 02:08:48;;;;;;;3.30;2.90;;;14.10;99.90;;;;;;2060580;28;20226;-82
2023/07/25 02:09:48;;;;;;;4.77;2.83;;;14.10;99.90;;;;;;2067385;28;20286;-82
2023/07/25 02:10:49;;;;;;;4.57;2.83;;;14.00;99.90;;;;;;2075556;28;20271;-82
2023/07/25 02:11:50;;;;;;;3.87;2.90;;;14.00;99.90;;;;;;2068029;28;20246;-82
2023/07/25 02:12:51;;;;;;;3.60;2.80;;;13.90;99.90;;;;;;2086201;28;20252;-81
2023/07/25 02:13:52;;;;;;;3.83;2.97;;;14.00;99.90;;;;;;2081354;28;20232;-82
2023/07/25 02:14:53;;;;;;;5.07;2.90;;;13.90;99.90;;;;;;2085423;28;20260;-82
2023/07/25 02:15:53;;;;;;;3.50;2.90;;;13.90;99.90;;;;;;2075992;28;20237;-82
2023/07/25 02:16:54;;;;;;;4.97;2.97;;;13.90;99.90;;;;;;2059101;28;20249;-82
2023/07/25 02:17:55;;;;;;;3.57;3.10;;;13.90;99.90;;;;;;2072754;28;20248;-82
2023/07/25 02:18:55;;;;;;;4.43;3.33;;;14.00;99.90;;;;;;2065794;28;20238;-81
2023/07/25 02:19:56;;;;;;;4.43;3.00;;;14.00;99.90;;;;;;2069828;28;20234;-82
2023/07/25 02:20:58;;;;;;;4.37;2.67;;;13.90;99.90;;;;;;2069880;28;20666;-82
2023/07/25 02:21:59;;;;;;;4.47;3.75;;;14.00;99.90;;;;;;2061074;28;20249;-82
2023/07/25 02:23:00;;;;;;;3.10;2.77;;;14.00;99.90;;;;;;2075861;28;20189;-82
2023/07/25 02:24:00;;;;;;;3.43;2.43;;;14.00;99.90;;;;;;2082112;28;20196;-83
2023/07/25 02:25:01;;;;;;;4.03;3.10;;;13.80;99.90;;;;;;2079556;28;20197;-82
2023/07/25 02:26:02;;;;;;;3.17;2.67;;;13.80;99.90;;;;;;2078391;28;20174;-83
2023/07/25 02:27:03;;;;;;;3.63;2.80;;;13.80;99.90;;;;;;2067907;28;20207;-82
2023/07/25 02:28:04;;;;;;;5.05;2.70;;;13.70;99.90;;;;;;2068096;28;20316;-83
2023/07/25 02:29:05;;;;;;;3.50;2.60;;;13.70;99.90;;;;;;2074273;28;20194;-82
2023/07/25 02:30:06;;;;;;;3.90;2.83;;;13.70;99.90;;;;;;2082490;28;20197;-84
2023/07/25 02:31:07;;;;;;;3.42;2.70;;;13.60;99.90;;;;;;2072540;28;20221;-83
2023/07/25 02:32:08;;;;;;;3.93;2.90;;;13.50;99.90;;;;;;2081556;28;20200;-84
2023/07/25 02:33:10;;;;;;;4.13;2.70;;;13.50;99.90;;;;;;2081194;28;20195;-84
2023/07/25 02:34:11;;;;;;;3.17;2.63;;;13.50;99.90;;;;;;2071288;28;20217;-84
2023/07/25 02:35:12;;;;;;;3.53;2.80;;;13.60;99.90;;;;;;2061825;28;20193;-85
2023/07/25 02:36:12;;;;;;;3.97;2.60;;;13.60;99.90;;;;;;2056606;28;20519;-84
2023/07/25 02:37:13;;;;;;;4.80;3.00;;;13.70;99.90;;;;;;2067254;28;20178;-84
2023/07/25 02:38:15;;;;;;;2.80;2.53;;;13.40;99.90;;;;;;2069561;28;20177;-85
2023/07/25 02:39:15;;;;;;;3.97;2.50;;;13.40;99.90;;;;;;2052475;28;20600;-85
2023/07/25 02:40:16;;;;;;;3.47;2.73;;;13.40;99.90;;;;;;2059305;28;20189;-84
2023/07/25 02:41:17;;;;;;;3.87;2.63;;;13.40;99.90;;;;;;2072160;28;20627;-85
2023/07/25 02:42:17;;;;;;;3.07;2.20;;;13.40;99.90;;;;;;2070303;28;20300;-85
2023/07/25 02:43:22;;;;;;;4.87;2.60;;;13.40;99.90;;;;;;2076464;28;20183;-85
2023/07/25 02:44:22;;;;;;;3.35;2.50;;;13.50;99.90;;;;;;2061820;28;20223;-85
2023/07/25 02:45:23;;;;;;;4.13;2.53;;;13.60;99.90;;;;;;2055914;28;20259;-85
2023/07/25 02:46:24;;;;;;;3.67;2.47;;;13.60;99.90;;;;;;2074113;28;20283;-85
2023/07/25 02:47:24;;;;;;;5.40;2.70;;;13.70;99.90;;;;;;2080960;28;20225;-83
2023/07/25 02:48:25;;;;;;;4.93;3.10;;;13.70;99.90;;;;;;2064303;28;20230;-85
2023/07/25 02:49:26;;;;;;;4.17;2.73;;;13.70;99.90;;;;;;2072904;28;20266;-83
2023/07/25 02:50:27;;;;;;;3.03;2.40;;;13.80;99.90;;;;;;2077525;28;20229;-82
2023/07/25 02:51:28;;;;;;;3.60;2.63;;;13.80;99.90;;;;;;2076940;28;20312;-83
2023/07/25 02:52:29;;;;;;;2.93;2.50;;;13.70;99.90;;;;;;2070017;28;20612;-82
2023/07/25 02:53:29;;;;;;;3.50;2.60;;;13.80;99.90;;;;;;2070409;28;20256;-83
2023/07/25 02:54:30;;;;;;;3.53;2.77;;;13.80;99.90;;;;;;2062088;28;20234;-83
2023/07/25 02:55:31;;;;;;;3.77;2.70;;;13.90;99.90;;;;;;2070531;28;20234;-84
2023/07/25 02:56:33;;;;;;;5.20;3.00;;;13.70;99.90;;;;;;2070855;28;20229;-84
2023/07/25 02:57:34;;;;;;;3.55;2.90;;;13.70;99.90;;;;;;2077732;28;20245;-83
2023/07/25 02:58:34;;;;;;;4.80;2.50;;;13.70;99.90;;;;;;2074357;28;20229;-82
2023/07/25 02:59:35;;;;;;;3.80;2.53;;;13.70;99.90;;;;;;2077953;28;20233;-84
2023/07/25 03:00:36;;;;;;;2.67;2.30;;;13.70;99.90;;;;;;2077937;28;20297;-84
2023/07/25 03:01:36;;;;;;;3.57;2.70;;;13.60;99.90;;;;;;2070799;28;20232;-84
2023/07/25 03:02:37;;;;;;;3.93;2.73;;;13.60;99.90;;;;;;2069729;28;20231;-85
2023/07/25 03:03:38;;;;;;;4.13;2.90;;;13.60;99.90;;;;;;2076572;28;20239;-85
2023/07/25 03:04:38;;;;;;;3.30;2.53;;;13.50;99.90;;;;;;2070827;28;20319;-85
2023/07/25 03:05:39;;;;;;;4.33;3.07;;;13.40;99.90;;;;;;2063204;28;20246;-84
2023/07/25 03:06:40;;;;;;;3.93;2.57;;;13.40;99.90;;;;;;2062853;28;20324;-85
2023/07/25 03:07:40;;;;;;;4.37;2.60;;;13.60;99.90;;;;;;2060253;28;20306;-84
2023/07/25 03:08:41;;;;;;;3.40;2.70;;;13.50;99.90;;;;;;2060574;28;20241;-85
2023/07/25 03:09:42;;;;;;;3.50;2.90;;;13.60;99.90;;;;;;2056740;28;20278;-85
2023/07/25 03:10:42;;;;;;;4.07;2.67;;;13.60;99.90;;;;;;2064258;28;20242;-84
2023/07/25 03:11:43;;;;;;;3.03;2.37;;;13.60;99.90;;;;;;2079067;28;20417;-83
2023/07/25 03:12:44;;;;;;;3.47;2.63;;;13.50;99.90;;;;;;2076743;28;20236;-82
2023/07/25 03:13:44;;;;;;;2.33;2.03;;;13.50;99.90;;;;;;2058450;28;20239;-84
2023/07/25 03:14:45;;;;;;;5.20;2.80;;;13.50;99.90;;;;;;2055078;28;20234;-82
2023/07/25 03:15:46;;;;;;;3.33;2.70;;;13.50;99.90;;;;;;2053215;28;20246;-84
2023/07/25 03:16:46;;;;;;;2.77;2.37;;;13.50;99.90;;;;;;2061555;28;20234;-84
2023/07/25 03:17:47;;;;;;;4.03;2.80;;;13.40;99.90;;;;;;2068229;28;20222;-84
2023/07/25 03:18:48;;;;;;;2.73;2.17;;;13.50;99.90;;;;;;2067249;28;20255;-83
2023/07/25 03:19:49;;;;;;;4.87;2.70;;;13.40;99.90;;;;;;2078162;28;20251;-83
2023/07/25 03:20:49;;;;;;;5.20;2.83;;;13.40;99.90;;;;;;2071160;28;20291;-83
2023/07/25 03:21:50;;;;;;;3.27;2.63;;;13.40;99.90;;;;;;2062009;28;20222;-83
2023/07/25 03:22:51;;;;;;;3.75;2.40;;;13.40;99.90;;;;;;2079512;28;20225;-83
2023/07/25 03:23:52;;;;;;;3.40;2.30;;;13.50;99.90;;;;;;2074645;28;20229;-82
2023/07/25 03:24:53;;;;;;;3.43;2.73;;;13.50;99.90;;;;;;2081332;28;20240;-84
2023/07/25 03:25:53;;;;;;;3.07;2.57;;;13.40;99.90;;;;;;2071469;28;20256;-83
2023/07/25 03:26:54;;;;;;;3.80;2.83;;;13.40;99.90;;;;;;2078020;28;20264;-82
2023/07/25 03:27:55;;;;;;;5.20;3.17;;;13.50;99.90;;;;;;2065940;28;20210;-82
2023/07/25 03:28:55;;;;;;;3.83;2.50;;;13.70;99.90;;;;;;2062342;28;20232;-84
2023/07/25 03:29:56;;;;;;;3.30;2.30;;;13.60;99.90;;;;;;2064709;28;20225;-85
2023/07/25 03:30:57;;;;;;;2.70;2.40;;;13.60;99.90;;;;;;2063557;28;20238;-83
2023/07/25 03:31:57;;;;;;;4.33;2.30;;;13.50;99.90;;;;;;2060420;28;20268;-85
2023/07/25 03:32:58;;;;;;;4.23;2.60;;;13.40;99.90;;;;;;2066477;28;20367;-84
2023/07/25 03:33:59;;;;;;;4.07;2.37;;;13.30;99.90;;;;;;2065144;28;20330;-83
2023/07/25 03:34:59;;;;;;;5.87;2.70;;;13.20;99.90;;;;;;2057263;28;20297;-83
2023/07/25 03:36:00;;;;;;;4.13;2.60;;;13.00;99.90;;;;;;2056593;28;20683;-83
2023/07/25 03:37:01;;;;;;;4.40;2.83;;;13.00;99.90;;;;;;2063096;28;20194;-83
2023/07/25 03:38:02;;;;;;;3.47;2.30;;;13.00;99.90;;;;;;2075026;28;20805;-84
2023/07/25 03:39:02;;;;;;;2.73;2.23;;;13.10;99.90;;;;;;2079853;28;20252;-83
2023/07/25 03:40:05;;;;;;;3.47;2.53;;;13.20;99.90;;;;;;2068268;28;20189;-83
2023/07/25 03:41:06;;;;;;;4.32;2.55;;;13.20;99.90;;;;;;2075856;28;20300;-83
2023/07/25 03:42:07;;;;;;;3.70;2.30;;;13.20;99.90;;;;;;2064679;28;20193;-83
2023/07/25 03:43:07;;;;;;;3.37;2.30;;;13.30;99.90;;;;;;2061703;28;20209;-83
2023/07/25 03:44:08;;;;;;;2.40;2.20;;;13.30;99.90;;;;;;2078508;28;20212;-84
2023/07/25 03:45:09;;;;;;;2.87;2.27;;;13.40;99.90;;;;;;2071335;28;20194;-84
2023/07/25 03:46:10;;;;;;;4.00;2.28;;;13.40;99.90;;;;;;2071924;28;20194;-84
2023/07/25 03:47:10;;;;;;;4.03;2.37;;;13.40;99.90;;;;;;2072630;28;20186;-84
2023/07/25 03:48:11;;;;;;;7.40;2.53;;;13.50;99.90;;;;;;2065476;28;20222;-84
2023/07/25 03:49:13;;;;;;;3.67;2.30;;;13.70;99.90;;;;;;2072933;28;20189;-84
2023/07/25 03:50:13;;;;;;;2.60;2.30;;;13.70;99.90;;;;;;2065461;28;20190;-83
2023/07/25 03:51:14;;;;;;;3.43;2.47;;;13.60;99.90;;;;;;2063565;28;20771;-83
2023/07/25 03:52:15;;;;;;;3.80;2.67;;;13.40;99.90;;;;;;2077521;28;20177;-83
2023/07/25 03:53:15;;;;;;;7.13;2.73;;;13.50;99.90;;;;;;2078674;28;20189;-82
2023/07/25 03:54:17;;;;;;;2.80;2.40;;;13.60;99.90;;;;;;2070124;28;20670;-82
2023/07/25 03:55:18;;;;;;;3.40;2.50;;;13.60;99.90;;;;;;2062568;28;20190;-83
2023/07/25 03:56:19;;;;;;;2.40;1.93;;;13.60;99.90;;;;;;2074172;28;20705;-84
2023/07/25 03:57:19;;;;;;;2.83;2.17;;;13.70;99.90;;;;;;2078849;28;20232;-82
2023/07/25 03:58:20;;;;;;;3.87;2.50;;;13.70;99.90;;;;;;2070109;28;20807;-84
2023/07/25 03:59:21;;;;;;;3.57;2.30;;;13.80;99.90;;;;;;2069724;28;20280;-82
2023/07/25 04:00:22;;;;;;;4.13;2.50;;;13.80;99.90;;;;;;2070982;28;20307;-83
2023/07/25 04:01:22;;;;;;;5.33;2.33;;;13.80;99.90;;;;;;2069081;28;20226;-86
2023/07/25 04:02:23;;;;;;;3.77;2.37;;;13.70;99.90;;;;;;2071472;28;20667;-83
2023/07/25 04:03:24;;;;;;;4.30;2.40;;;13.60;99.90;;;;;;2065031;28;20317;-81
2023/07/25 04:04:24;;;;;;;4.87;2.47;;;13.60;99.90;;;;;;2069021;28;20230;-83
2023/07/25 04:05:25;;;;;;;3.23;2.50;;;13.60;99.90;;;;;;2066969;28;20231;-82
2023/07/25 04:06:26;;;;;;;2.80;2.23;;;13.60;99.90;;;;;;2072970;28;20225;-83
2023/07/25 04:07:26;;;;;;;3.17;2.27;;;13.50;99.90;;;;;;2070895;28;20713;-83
2023/07/25 04:08:27;;;;;;;3.10;2.30;;;13.30;99.90;;;;;;2060695;28;20244;-83
2023/07/25 04:09:28;;;;;;;3.70;2.20;;;13.20;99.90;;;;;;2068514;28;20248;-84
2023/07/25 04:10:28;;;;;;;3.27;2.03;;;13.30;99.90;;;;;;2064899;28;20229;-85
2023/07/25 04:11:29;;;;;;;3.40;2.53;;;13.30;99.90;;;;;;2072699;28;20236;-83
2023/07/25 04:12:30;;;;;;;2.87;2.20;;;13.30;99.90;;;;;;2072935;28;20229;-84
2023/07/25 04:13:30;;;;;;;3.67;2.33;;;13.30;99.90;;;;;;2072937;28;20232;-83
2023/07/25 04:14:31;;;;;;;3.10;2.20;;;13.40;99.90;;;;;;2063782;28;20250;-84
2023/07/25 04:15:32;;;;;;;3.87;2.27;;;13.40;99.90;;;;;;2063875;28;20233;-83
2023/07/25 04:16:32;;;;;;;2.90;2.00;;;13.40;99.90;;;;;;2071088;28;20792;-83
2023/07/25 04:17:33;;;;;;;3.17;2.30;;;13.50;99.90;;;;;;2054038;28;20238;-83
2023/07/25 04:18:34;;;;;;;4.33;2.47;;;13.40;99.90;;;;;;2060873;28;20226;-83
2023/07/25 04:19:34;;;;;;;3.23;2.70;;;13.40;99.90;;;;;;2053973;28;20622;-83
2023/07/25 04:20:35;;;;;;;5.80;2.40;;;13.30;99.90;;;;;;2052439;28;20238;-84
2023/07/25 04:21:36;;;;;;;3.47;2.30;;;13.10;99.90;;;;;;2065178;28;20233;-84
2023/07/25 04:22:38;;;;;;;3.67;2.10;;;13.20;99.90;;;;;;2054051;28;20238;-84
2023/07/25 04:23:39;;;;;;;3.78;2.60;;;13.00;99.90;;;;;;2063087;28;20316;-83
2023/07/25 04:24:39;;;;;;;3.40;2.50;;;13.00;99.90;;;;;;2068907;28;20241;-83
2023/07/25 04:25:40;;;;;;;2.67;2.10;;;12.90;99.90;;;;;;2071720;28;20228;-82
2023/07/25 04:26:41;;;;;;;3.47;2.30;;;12.90;99.90;;;;;;2068235;28;20604;-84
2023/07/25 04:27:42;;;;;;;3.60;2.23;;;12.90;99.90;;;;;;2056744;28;20664;-84
2023/07/25 04:28:43;;;;;;;4.20;2.13;;;12.90;99.90;;;;;;2061935;28;20226;-83
2023/07/25 04:29:44;;;;;;;3.00;2.70;;;13.00;99.90;;;;;;2071617;28;21091;-83
2023/07/25 04:30:44;;;;;;;4.10;3.33;;;13.00;99.90;;;;;;2069291;28;20233;-83
2023/07/25 04:31:47;;;;;;;4.70;2.60;;;13.10;99.90;;;;;;2068855;28;20225;-83
2023/07/25 04:32:48;;;;;;;3.33;2.92;;;13.10;99.90;;;;;;2064523;28;20695;-83
2023/07/25 04:33:48;;;;;;;2.80;2.50;;;13.20;99.90;;;;;;2087161;28;20230;-83
2023/07/25 04:34:49;;;;;;;3.33;2.40;;;13.20;99.90;;;;;;2074932;28;20241;-84
2023/07/25 04:35:50;;;;;;;3.37;2.60;;;13.20;99.90;;;;;;2073777;28;20236;-84
2023/07/25 04:36:51;;;;;;;2.27;2.07;;;13.20;99.90;;;;;;2065535;28;20309;-83
2023/07/25 04:37:51;;;;;;;2.90;2.57;;;13.30;99.90;;;;;;2061624;28;20322;-84
2023/07/25 04:38:52;;;;;;;2.73;2.20;;;13.20;99.90;;;;;;2077060;28;20228;-83
2023/07/25 04:39:53;;;;;;;3.90;2.57;;;13.20;99.90;;;;;;2059515;28;20226;-85
2023/07/25 04:40:55;;;;;;;3.50;2.33;;;13.20;99.90;;;;;;2063338;28;20613;-84
2023/07/25 04:41:56;;;;;;;3.20;2.30;;;13.40;99.90;;;;;;2079088;28;20857;-83
2023/07/25 04:42:57;;;;;;;3.13;2.30;;;13.60;99.90;;;;;;2083348;28;20232;-82
2023/07/25 04:43:57;;;;;;;2.50;2.30;;;13.60;99.90;;;;;;2072160;28;20225;-82
2023/07/25 04:44:58;;;;;;;3.93;2.87;;;13.70;99.90;;;;;;2087097;28;20358;-82
2023/07/25 04:45:59;;;;;;;2.83;2.20;;;13.70;99.90;;;;;;2078120;28;20238;-83
2023/07/25 04:46:59;;;;;;;2.50;2.10;;;13.80;99.90;;;;;;2071487;28;20210;-81
2023/07/25 04:48:00;;;;;;;2.73;1.97;;;13.80;99.90;;;;;;2065359;28;20617;-83
2023/07/25 04:49:01;;;;;;;4.83;2.20;;;14.00;99.90;;;;;;2060597;28;20225;-83
2023/07/25 04:50:02;;;;;;;2.70;2.13;;;14.00;99.90;;;;;;2073876;28;20241;-84
2023/07/25 04:51:03;;;;;;;3.83;2.13;;;14.10;99.90;;;;;;2073565;28;20267;-83
2023/07/25 04:52:04;;;;;;;2.73;2.37;;;14.20;99.90;;;;;;2057373;28;20245;-83
2023/07/25 04:53:05;;;;;;;2.75;2.42;;;14.20;99.90;;;;;;2062366;28;20390;-83
2023/07/25 04:54:08;;;;;;;4.13;2.30;;;14.10;99.90;;;;;;2064720;28;20227;-83
2023/07/25 04:55:08;;;;;;;2.58;2.03;;;14.10;99.90;;;;;;2072792;28;20214;-84
2023/07/25 04:56:09;;;;;;;3.50;2.20;;;14.20;99.90;;;;;;2063932;28;20317;-84
2023/07/25 04:57:10;;;;;;;6.27;2.40;;;14.10;99.90;;;;;;2055597;28;20191;-84
2023/07/25 04:58:10;;;;;;;2.63;2.20;;;14.10;99.90;;;;;;2065031;28;20193;-83
2023/07/25 04:59:11;;;;;;;4.57;2.30;;;14.20;99.90;;;;;;2069907;28;20189;-84
2023/07/25 05:00:12;;;;;;;2.83;2.10;;;14.30;99.90;;;;;;2078734;28;20729;-85
2023/07/25 05:01:13;;;;;;;2.83;2.00;;;14.40;99.90;;;;;;2064550;28;20306;-83
2023/07/25 05:02:14;;;;;;;2.57;2.37;;;14.50;99.90;;;;;;2071708;28;20208;-83
2023/07/25 05:03:14;;;;;;;4.50;2.60;;;14.40;99.90;;;;;;2078124;28;20193;-83
2023/07/25 05:04:15;;;;;;;4.17;2.37;;;14.60;99.90;;;;;;2064554;28;20300;-83
2023/07/25 05:05:16;;;;;;;4.37;2.53;;;14.60;99.90;;;;;;2064525;28;20713;-84
2023/07/25 05:06:17;;;;;;;3.50;2.50;;;14.60;99.90;;;;;;2059962;28;20187;-83
2023/07/25 05:07:17;;;;;;;6.20;2.60;;;14.60;99.90;;;;;;2068709;28;20183;-82
2023/07/25 05:08:18;;;;;;;2.97;2.30;;;14.70;99.90;;;;;;2078061;28;20269;-83
2023/07/25 05:09:19;;;;;;;2.83;2.33;;;14.70;99.90;;;;;;2082463;28;20342;-83
2023/07/25 05:10:20;;;;;;;2.83;2.23;;;14.80;99.90;;;;;;2075790;28;20706;-83
2023/07/25 05:11:20;;;;;;;4.23;2.87;;;15.00;99.90;;;;;;2069470;28;20483;-85
2023/07/25 05:12:21;;;;;;;3.63;2.10;;;15.10;99.90;;;;;;2070381;28;20355;-83
2023/07/25 05:13:22;;;;;;;5.20;2.40;;;15.10;99.90;;;;;;2077837;28;20315;-82
2023/07/25 05:14:23;;;;;;;3.27;2.50;;;15.20;99.90;;;;;;2072469;28;20315;-84
2023/07/25 05:15:23;;;;;;;3.17;2.47;;;15.20;99.90;;;;;;2066181;28;20329;-83
2023/07/25 05:16:24;;;;;;;3.97;2.20;;;15.20;99.90;;;;;;2070916;28;20234;-84
2023/07/25 05:17:25;;;;;;;2.53;2.10;;;15.30;99.90;;;;;;2063936;28;20237;-83